createdAt,value
2023-05-14T00:01:04.255Z,12.83
2023-05-14T00:03:31.291Z,15.87
2023-05-14T00:05:58.403Z,12.03
2023-05-14T00:08:25.263Z,11.97
2023-05-14T00:10:52.454Z,12.00
2023-05-14T00:13:19.174Z,12.80
2023-05-14T00:15:45.960Z,13.00
2023-05-14T00:18:12.747Z,12.90
2023-05-14T00:20:39.593Z,14.47
2023-05-14T00:23:06.294Z,10.73
2023-05-14T00:25:32.993Z,11.63
2023-05-14T00:27:59.685Z,12.90
2023-05-14T00:30:26.527Z,12.77
2023-05-14T00:32:53.482Z,11.30
2023-05-14T00:35:21.516Z,10.73
2023-05-14T00:37:48.268Z,11.70
2023-05-14T00:40:15.547Z,12.30
2023-05-14T00:42:42.379Z,14.20
2023-05-14T00:45:09.551Z,10.73
2023-05-14T00:47:36.589Z,15.17
2023-05-14T00:50:04.665Z,11.27
2023-05-14T00:52:34.746Z,12.50
2023-05-14T00:55:04.628Z,14.30
2023-05-14T00:57:31.599Z,12.07
2023-05-14T00:59:59.521Z,14.73
2023-05-14T01:02:26.468Z,11.20
2023-05-14T01:04:53.891Z,12.93
2023-05-14T01:07:23.356Z,14.13
2023-05-14T01:10:06.090Z,16.67
2023-05-14T01:13:09.421Z,10.93
2023-05-14T01:15:38.529Z,10.83
2023-05-14T01:18:09.584Z,11.80
2023-05-14T01:20:36.891Z,13.10
2023-05-14T01:23:03.929Z,16.00
2023-05-14T01:25:32.115Z,12.43
2023-05-14T01:28:04.549Z,12.73
2023-05-14T01:30:45.580Z,12.70
2023-05-14T01:33:18.315Z,9.83
2023-05-14T01:35:45.528Z,14.87
2023-05-14T01:38:14.895Z,13.33
2023-05-14T01:40:42.381Z,12.47
2023-05-14T01:43:09.223Z,12.63
2023-05-14T01:45:37.217Z,11.80
2023-05-14T01:48:05.414Z,12.60
2023-05-14T01:50:32.199Z,12.20
2023-05-14T01:52:59.008Z,12.33
2023-05-14T01:55:25.811Z,10.80
2023-05-14T01:57:53.237Z,13.40
2023-05-14T02:00:21.015Z,11.40
2023-05-14T02:02:47.868Z,11.47
2023-05-14T02:05:14.721Z,11.90
2023-05-14T02:07:41.652Z,12.30
2023-05-14T02:10:08.891Z,11.07
2023-05-14T02:12:35.724Z,11.67
2023-05-14T02:15:03.800Z,13.40
2023-05-14T02:17:30.636Z,11.40
2023-05-14T02:19:57.407Z,12.80
2023-05-14T02:22:24.206Z,11.30
2023-05-14T02:24:51.458Z,12.90
2023-05-14T02:27:18.340Z,11.10
2023-05-14T02:29:45.212Z,14.03
2023-05-14T02:32:11.949Z,14.00
2023-05-14T02:34:38.769Z,12.93
2023-05-14T02:37:05.609Z,14.17
2023-05-14T02:39:32.384Z,16.57
2023-05-14T02:41:59.207Z,17.03
2023-05-14T02:44:25.947Z,13.23
2023-05-14T02:46:52.863Z,13.87
2023-05-14T02:49:19.694Z,11.83
2023-05-14T02:51:46.425Z,15.70
2023-05-14T02:54:13.112Z,14.23
2023-05-14T02:56:39.863Z,12.13
2023-05-14T02:59:06.686Z,12.47
2023-05-14T03:01:33.952Z,16.13
2023-05-14T03:04:01.102Z,14.07
2023-05-14T03:06:27.850Z,11.10
2023-05-14T03:08:54.571Z,12.20
2023-05-14T03:11:21.719Z,13.97
2023-05-14T03:13:48.431Z,14.73
2023-05-14T03:16:16.085Z,12.50
2023-05-14T03:18:42.843Z,12.63
2023-05-14T03:21:09.658Z,16.10
2023-05-14T03:23:36.394Z,13.10
2023-05-14T03:26:03.837Z,11.37
2023-05-14T03:28:30.986Z,12.77
2023-05-14T03:30:57.971Z,13.50
2023-05-14T03:33:24.838Z,14.77
2023-05-14T03:35:51.926Z,13.00
2023-05-14T03:38:18.740Z,17.00
2023-05-14T03:40:45.864Z,15.17
2023-05-14T03:43:12.551Z,13.27
2023-05-14T03:45:39.858Z,11.10
2023-05-14T03:48:06.848Z,15.63
2023-05-14T03:50:33.778Z,13.47
2023-05-14T03:53:00.608Z,12.27
2023-05-14T03:55:27.580Z,13.17
2023-05-14T03:57:54.317Z,16.97
2023-05-14T04:00:21.389Z,16.00
2023-05-14T04:02:48.430Z,12.17
2023-05-14T04:05:15.357Z,14.70
2023-05-14T04:07:42.054Z,15.50
2023-05-14T04:10:09.355Z,13.70
2023-05-14T04:12:36.208Z,13.53
2023-05-14T04:15:03.047Z,16.20
2023-05-14T04:17:29.899Z,15.20
2023-05-14T04:19:56.588Z,12.77
2023-05-14T04:22:23.304Z,14.20
2023-05-14T04:24:49.956Z,15.00
2023-05-14T04:27:22.911Z,13.40
2023-05-14T04:29:50.421Z,12.93
2023-05-14T04:32:18.150Z,12.13
2023-05-14T04:34:45.061Z,13.30
2023-05-14T04:37:11.860Z,13.20
2023-05-14T04:39:38.790Z,14.77
2023-05-14T04:42:06.903Z,14.90
2023-05-14T04:44:34.942Z,13.40
2023-05-14T04:47:02.328Z,15.50
2023-05-14T04:49:30.354Z,14.97
2023-05-14T04:51:57.153Z,15.90
2023-05-14T04:54:24.100Z,15.37
2023-05-14T04:56:51.233Z,14.47
2023-05-14T04:59:18.015Z,16.87
2023-05-14T05:01:45.883Z,13.73
2023-05-14T05:04:12.996Z,15.03
2023-05-14T05:06:39.861Z,14.13
2023-05-14T05:09:06.655Z,14.23
2023-05-14T05:11:33.331Z,13.17
2023-05-14T05:14:00.071Z,13.40
2023-05-14T05:16:26.869Z,16.53
2023-05-14T05:18:53.742Z,12.97
2023-05-14T05:21:20.548Z,14.67
2023-05-14T05:23:47.252Z,14.57
2023-05-14T05:26:14.004Z,17.70
2023-05-14T05:28:40.843Z,14.23
2023-05-14T05:31:08.069Z,14.57
2023-05-14T05:33:35.662Z,16.43
2023-05-14T05:36:02.847Z,15.53
2023-05-14T05:38:29.646Z,16.20
2023-05-14T05:40:56.485Z,18.43
2023-05-14T05:43:23.220Z,14.77
2023-05-14T05:45:49.895Z,15.77
2023-05-14T05:48:16.624Z,14.27
2023-05-14T05:50:44.883Z,15.07
2023-05-14T05:53:12.449Z,15.17
2023-05-14T05:55:40.867Z,17.67
2023-05-14T05:58:07.575Z,16.80
2023-05-14T06:00:34.398Z,15.73
2023-05-14T06:03:01.365Z,14.03
2023-05-14T06:05:28.309Z,15.63
2023-05-14T06:07:55.048Z,16.70
2023-05-14T06:10:22.182Z,16.63
2023-05-14T06:12:49.021Z,15.60
2023-05-14T06:15:15.895Z,15.07
2023-05-14T06:17:42.677Z,18.97
2023-05-14T06:20:09.969Z,18.17
2023-05-14T06:22:36.773Z,18.93
2023-05-14T06:25:04.388Z,14.93
2023-05-14T06:27:31.098Z,17.63
2023-05-14T06:29:57.882Z,17.20
2023-05-14T06:32:24.734Z,17.00
2023-05-14T06:34:51.447Z,15.47
2023-05-14T06:37:18.156Z,16.80
2023-05-14T06:39:49.958Z,15.97
2023-05-14T06:42:17.427Z,21.80
2023-05-14T06:44:44.951Z,14.10
2023-05-14T06:47:11.720Z,20.10
2023-05-14T06:49:39.050Z,18.17
2023-05-14T06:52:06.394Z,15.23
2023-05-14T06:54:33.135Z,13.20
2023-05-14T06:56:59.880Z,13.13
2023-05-14T06:59:26.623Z,15.50
2023-05-14T07:01:53.335Z,18.70
2023-05-14T07:04:20.066Z,19.77
2023-05-14T07:06:46.744Z,17.77
2023-05-14T07:09:13.412Z,17.03
2023-05-14T07:11:40.209Z,16.83
2023-05-14T07:14:06.917Z,17.23
2023-05-14T07:16:33.668Z,15.20
2023-05-14T07:19:00.443Z,15.60
2023-05-14T07:21:27.868Z,17.30
2023-05-14T07:23:54.548Z,17.50
2023-05-14T07:26:21.471Z,17.13
2023-05-14T07:28:48.165Z,16.70
2023-05-14T07:31:14.869Z,21.30
2023-05-14T07:33:41.609Z,18.07
2023-05-14T07:36:08.912Z,16.20
2023-05-14T07:38:35.782Z,21.20
2023-05-14T07:41:02.862Z,17.23
2023-05-14T07:43:29.564Z,18.07
2023-05-14T07:45:56.574Z,19.53
2023-05-14T07:48:23.416Z,17.37
2023-05-14T07:50:50.292Z,16.10
2023-05-14T07:53:17.003Z,16.50
2023-05-14T07:55:45.722Z,18.87
2023-05-14T07:58:12.417Z,17.37
2023-05-14T08:00:39.182Z,17.80
2023-05-14T08:03:06.075Z,17.23
2023-05-14T08:05:33.064Z,23.37
2023-05-14T08:07:59.849Z,18.00
2023-05-14T08:10:27.077Z,17.70
2023-05-14T08:12:54.067Z,17.30
2023-05-14T08:15:21.065Z,19.33
2023-05-14T08:17:47.806Z,15.93
2023-05-14T08:20:14.550Z,16.30
2023-05-14T08:22:41.406Z,19.07
2023-05-14T08:25:08.466Z,19.17
2023-05-14T08:27:35.212Z,16.57
2023-05-14T08:30:01.944Z,17.20
2023-05-14T08:32:28.818Z,17.00
2023-05-14T08:34:55.558Z,13.97
2023-05-14T08:37:22.291Z,14.80
2023-05-14T08:39:49.195Z,13.73
2023-05-14T08:42:20.303Z,12.40
2023-05-14T08:44:52.609Z,13.53
2023-05-14T08:47:21.972Z,12.23
2023-05-14T08:49:57.943Z,13.73
2023-05-14T08:52:24.895Z,11.93
2023-05-14T08:54:53.991Z,9.60
2023-05-14T08:57:23.749Z,10.50
2023-05-14T08:59:51.399Z,8.27
2023-05-14T09:02:24.407Z,8.60
2023-05-14T09:05:01.484Z,9.20
2023-05-14T09:07:28.577Z,8.37
2023-05-14T09:09:55.791Z,8.63
2023-05-14T09:12:22.854Z,10.10
2023-05-14T09:14:50.370Z,8.97
2023-05-14T09:17:18.241Z,11.10
2023-05-14T09:19:49.103Z,8.27
2023-05-14T09:22:17.625Z,9.93
2023-05-14T09:24:44.857Z,8.37
2023-05-14T09:27:21.398Z,7.83
2023-05-14T09:29:48.599Z,8.37
2023-05-14T09:32:15.544Z,8.40
2023-05-14T09:34:42.451Z,6.93
2023-05-14T09:37:10.043Z,5.83
2023-05-14T09:39:39.830Z,6.67
2023-05-14T09:42:06.837Z,6.73
2023-05-14T09:44:33.759Z,6.37
2023-05-14T09:47:00.904Z,6.63
2023-05-14T09:49:28.501Z,7.93
2023-05-14T09:51:57.084Z,8.10
2023-05-14T09:54:26.110Z,4.80
2023-05-14T09:56:55.031Z,6.13
2023-05-14T09:59:22.440Z,5.43
2023-05-14T10:01:50.931Z,9.63
2023-05-14T10:04:18.241Z,6.53
2023-05-14T10:06:51.259Z,6.27
2023-05-14T10:09:22.132Z,7.20
2023-05-14T10:11:53.434Z,7.00
2023-05-14T10:14:28.976Z,7.80
2023-05-14T10:16:58.960Z,6.23
2023-05-14T10:19:26.516Z,7.00
2023-05-14T10:21:56.679Z,5.33
2023-05-14T10:24:25.972Z,6.33
2023-05-14T10:26:53.392Z,6.47
2023-05-14T10:29:20.129Z,6.23
2023-05-14T10:31:54.681Z,6.57
2023-05-14T10:34:41.518Z,6.30
2023-05-14T10:37:16.180Z,7.93
2023-05-14T10:39:51.501Z,13.10
2023-05-14T10:42:36.116Z,9.27
2023-05-14T10:45:07.548Z,6.97
2023-05-14T10:47:39.280Z,7.37
2023-05-14T10:50:08.299Z,9.20
2023-05-14T10:52:36.108Z,8.57
2023-05-14T10:55:07.721Z,6.90
2023-05-14T10:57:39.113Z,7.80
2023-05-14T11:00:07.790Z,7.70
2023-05-14T11:02:38.720Z,7.43
2023-05-14T11:05:08.204Z,5.93
2023-05-14T11:07:36.244Z,6.87
2023-05-14T11:10:11.575Z,6.40
2023-05-14T11:12:40.908Z,7.00
2023-05-14T11:15:10.070Z,5.80
2023-05-14T11:17:38.381Z,6.20
2023-05-14T11:20:06.730Z,5.43
2023-05-14T11:22:36.198Z,6.47
2023-05-14T11:25:03.424Z,6.70
2023-05-14T11:27:30.888Z,7.00
2023-05-14T11:29:58.177Z,6.47
2023-05-14T11:32:25.844Z,7.97
2023-05-14T11:34:52.906Z,6.33
2023-05-14T11:37:20.312Z,6.73
2023-05-14T11:39:52.203Z,6.30
2023-05-14T11:42:19.965Z,5.67
2023-05-14T11:44:51.997Z,6.37
2023-05-14T11:47:20.731Z,6.57
2023-05-14T11:49:47.920Z,5.00
2023-05-14T11:52:15.998Z,6.47
2023-05-14T11:54:43.965Z,5.23
2023-05-14T11:57:13.412Z,5.30
2023-05-14T11:59:41.011Z,5.07
2023-05-14T12:02:13.228Z,4.30
2023-05-14T12:04:41.623Z,4.67
2023-05-14T12:07:10.821Z,4.37
2023-05-14T12:09:40.147Z,5.40
2023-05-14T12:12:11.849Z,4.87
2023-05-14T12:14:41.611Z,5.50
2023-05-14T12:17:18.588Z,4.00
2023-05-14T12:19:47.530Z,5.43
2023-05-14T12:22:16.951Z,4.60
2023-05-14T12:25:04.256Z,5.27
2023-05-14T12:27:31.093Z,4.70
2023-05-14T12:30:19.104Z,6.20
2023-05-14T12:32:52.146Z,20.47
2023-05-14T12:35:19.160Z,4.33
2023-05-14T12:37:46.072Z,4.10
2023-05-14T12:40:13.320Z,4.23
2023-05-14T12:42:40.205Z,4.13
2023-05-14T12:45:08.646Z,3.90
2023-05-14T12:47:36.909Z,4.20
2023-05-14T12:50:04.813Z,5.20
2023-05-14T12:55:01.741Z,4.60
2023-05-14T12:57:29.905Z,5.70
2023-05-14T12:59:57.397Z,9.00
2023-05-14T13:02:24.103Z,3.73
2023-05-14T13:04:50.866Z,4.00
2023-05-14T13:07:17.657Z,4.10
2023-05-14T13:09:44.433Z,3.20
2023-05-14T13:12:11.218Z,4.07
2023-05-14T13:14:37.897Z,3.00
2023-05-14T13:17:05.418Z,6.10
2023-05-14T13:19:32.302Z,3.63
2023-05-14T13:21:59.131Z,4.17
2023-05-14T13:24:26.170Z,4.80
2023-05-14T13:26:52.885Z,3.97
2023-05-14T13:29:19.610Z,3.47
2023-05-14T13:31:46.534Z,5.10
2023-05-14T13:34:13.323Z,4.77
2023-05-14T13:36:40.759Z,5.27
2023-05-14T13:39:07.588Z,4.20
2023-05-14T13:41:37.972Z,4.27
2023-05-14T13:44:04.921Z,3.23
2023-05-14T13:46:31.860Z,4.90
2023-05-14T13:48:58.647Z,4.60
2023-05-14T13:51:25.504Z,3.23
2023-05-14T13:53:52.207Z,4.07
2023-05-14T13:56:19.327Z,5.37
2023-05-14T13:58:46.076Z,16.10
2023-05-14T14:01:13.102Z,28.43
2023-05-14T14:03:39.898Z,12.60
2023-05-14T14:06:06.716Z,6.07
2023-05-14T14:08:33.616Z,3.00
2023-05-14T14:11:00.453Z,3.40
2023-05-14T14:13:27.825Z,3.50
2023-05-14T14:15:54.649Z,3.23
2023-05-14T14:18:21.563Z,3.83
2023-05-14T14:20:48.566Z,3.13
2023-05-14T14:23:15.425Z,3.60
2023-05-14T14:25:42.185Z,3.40
2023-05-14T14:28:09.086Z,3.40
2023-05-14T14:30:35.905Z,3.90
2023-05-14T14:33:03.117Z,3.33
2023-05-14T14:35:30.735Z,3.53
2023-05-14T14:37:57.591Z,3.87
2023-05-14T14:40:24.603Z,3.67
2023-05-14T14:42:51.382Z,5.23
2023-05-14T14:45:18.409Z,3.77
2023-05-14T14:47:46.468Z,3.97
2023-05-14T14:50:13.845Z,4.63
2023-05-14T14:52:45.761Z,4.27
2023-05-14T14:55:12.921Z,4.40
2023-05-14T14:57:39.768Z,4.30
2023-05-14T15:00:09.293Z,3.23
2023-05-14T15:02:38.421Z,3.73
2023-05-14T15:05:06.052Z,4.20
2023-05-14T15:07:33.017Z,4.00
2023-05-14T15:10:00.072Z,7.20
2023-05-14T15:12:26.878Z,3.50
2023-05-14T15:14:53.628Z,3.40
2023-05-14T15:17:20.405Z,3.90
2023-05-14T15:19:47.626Z,2.80
2023-05-14T15:22:14.480Z,3.20
2023-05-14T15:24:41.149Z,7.30
2023-05-14T15:27:07.846Z,4.00
2023-05-14T15:29:34.583Z,6.20
2023-05-14T15:32:01.799Z,13.50
2023-05-14T15:34:28.599Z,3.23
2023-05-14T15:36:55.359Z,3.20
2023-05-14T15:39:22.303Z,2.40
2023-05-14T15:41:49.238Z,2.00
2023-05-14T15:44:16.064Z,3.40
2023-05-14T15:46:42.846Z,2.90
2023-05-14T15:49:09.705Z,3.77
2023-05-14T15:51:36.583Z,3.20
2023-05-14T15:54:03.689Z,2.50
2023-05-14T15:56:31.315Z,3.17
2023-05-14T15:58:58.008Z,2.80
2023-05-14T16:01:25.024Z,4.43
2023-05-14T16:03:52.699Z,5.70
2023-05-14T16:06:19.632Z,3.50
2023-05-14T16:08:46.354Z,3.37
2023-05-14T16:11:13.052Z,2.97
2023-05-14T16:13:41.515Z,4.93
2023-05-14T16:16:08.478Z,2.90
2023-05-14T16:18:35.334Z,2.73
2023-05-14T16:21:02.196Z,3.23
2023-05-14T16:23:28.967Z,7.07
2023-05-14T16:25:55.812Z,4.97
2023-05-14T16:28:22.660Z,3.57
2023-05-14T16:30:49.475Z,4.03
2023-05-14T16:33:16.411Z,3.83
2023-05-14T16:35:43.427Z,3.80
2023-05-14T16:38:10.454Z,3.40
2023-05-14T16:40:37.191Z,3.50
2023-05-14T16:43:04.045Z,4.40
2023-05-14T16:45:32.710Z,4.10
2023-05-14T16:48:00.991Z,3.20
2023-05-14T16:50:28.086Z,2.80
2023-05-14T16:52:54.916Z,2.73
2023-05-14T16:55:21.982Z,3.53
2023-05-14T16:57:48.804Z,3.63
2023-05-14T17:00:16.039Z,3.90
2023-05-14T17:02:42.871Z,3.87
2023-05-14T17:05:09.969Z,3.10
2023-05-14T17:07:38.520Z,4.70
2023-05-14T17:10:06.879Z,3.93
2023-05-14T17:12:33.547Z,3.50
2023-05-14T17:15:02.942Z,3.67
2023-05-14T17:17:32.654Z,3.00
2023-05-14T17:20:00.196Z,2.73
2023-05-14T17:22:27.250Z,2.83
2023-05-14T17:24:53.928Z,3.23
2023-05-14T17:27:20.655Z,3.90
2023-05-14T17:29:49.315Z,2.67
2023-05-14T17:32:15.999Z,2.80
2023-05-14T17:34:42.845Z,3.40
2023-05-14T17:37:09.772Z,2.53
2023-05-14T17:39:36.564Z,2.90
2023-05-14T17:42:03.702Z,3.10
2023-05-14T17:44:30.533Z,2.47
2023-05-14T17:46:57.407Z,3.17
2023-05-14T17:49:24.123Z,3.10
2023-05-14T17:51:51.006Z,3.10
2023-05-14T17:54:17.685Z,3.03
2023-05-14T17:56:44.490Z,4.90
2023-05-14T17:59:11.340Z,2.77
2023-05-14T18:01:38.082Z,3.60
2023-05-14T18:04:05.073Z,3.70
2023-05-14T18:06:32.261Z,2.97
2023-05-14T18:08:58.995Z,2.63
2023-05-14T18:11:26.417Z,5.30
2023-05-14T18:13:53.131Z,4.63
2023-05-14T18:16:19.977Z,3.13
2023-05-14T18:18:46.808Z,4.10
2023-05-14T18:21:13.614Z,6.67
2023-05-14T18:23:40.385Z,3.17
2023-05-14T18:26:07.225Z,3.33
2023-05-14T18:28:34.011Z,3.60
2023-05-14T18:31:00.851Z,5.40
2023-05-14T18:33:27.864Z,3.87
2023-05-14T18:35:54.749Z,3.77
2023-05-14T18:38:21.448Z,3.40
2023-05-14T18:40:49.441Z,4.27
2023-05-14T18:43:18.432Z,3.33
2023-05-14T18:45:49.085Z,3.90
2023-05-14T18:48:16.390Z,2.90
2023-05-14T18:50:43.202Z,3.60
2023-05-14T18:53:09.898Z,2.97
2023-05-14T18:55:37.186Z,3.47
2023-05-14T18:58:03.998Z,7.60
2023-05-14T19:00:30.736Z,3.67
2023-05-14T19:02:57.622Z,2.50
2023-05-14T19:05:24.648Z,3.50
2023-05-14T19:07:51.644Z,3.20
2023-05-14T19:10:18.487Z,3.00
2023-05-14T19:12:46.842Z,3.13
2023-05-14T19:15:13.645Z,3.70
2023-05-14T19:17:40.538Z,4.20
2023-05-14T19:20:08.084Z,3.10
2023-05-14T19:22:34.891Z,3.33
2023-05-14T19:25:01.994Z,4.10
2023-05-14T19:27:28.889Z,5.70
2023-05-14T19:29:55.615Z,4.00
2023-05-14T19:32:22.737Z,9.90
2023-05-14T19:34:49.612Z,4.20
2023-05-14T19:37:18.178Z,5.73
2023-05-14T19:39:44.945Z,4.83
2023-05-14T19:42:11.716Z,3.70
2023-05-14T19:44:38.413Z,5.80
2023-05-14T19:47:05.585Z,11.47
2023-05-14T19:49:32.274Z,14.33
2023-05-14T19:51:58.958Z,8.10
2023-05-14T19:54:25.782Z,5.50
2023-05-14T19:56:52.574Z,5.30
2023-05-14T19:59:19.370Z,5.93
2023-05-14T20:01:46.179Z,4.37
2023-05-14T20:04:14.070Z,4.27
2023-05-14T20:06:41.623Z,4.50
2023-05-14T20:09:08.380Z,4.40
2023-05-14T20:11:35.218Z,5.60
2023-05-14T20:14:01.951Z,5.37
2023-05-14T20:16:28.798Z,5.63
2023-05-14T20:18:55.826Z,5.30
2023-05-14T20:21:22.692Z,5.00
2023-05-14T20:23:49.495Z,5.23
2023-05-14T20:26:16.285Z,5.83
2023-05-14T20:28:43.554Z,6.20
2023-05-14T20:31:10.338Z,5.53
2023-05-14T20:33:37.057Z,6.47
2023-05-14T20:36:05.114Z,6.77
2023-05-14T20:38:33.595Z,8.33
2023-05-14T20:41:00.313Z,6.10
2023-05-14T20:43:27.814Z,8.00
2023-05-14T20:45:58.244Z,6.23
2023-05-14T20:48:25.021Z,5.40
2023-05-14T20:50:51.744Z,7.30
2023-05-14T20:53:18.472Z,8.83
2023-05-14T20:55:45.296Z,8.20
2023-05-14T20:58:11.975Z,7.37
2023-05-14T21:00:39.328Z,8.20
2023-05-14T21:03:06.192Z,6.67
2023-05-14T21:05:33.129Z,6.80
2023-05-14T21:07:59.804Z,6.83
2023-05-14T21:10:26.637Z,6.60
2023-05-14T21:12:53.476Z,5.77
2023-05-14T21:15:20.646Z,10.53
2023-05-14T21:17:47.375Z,40.57
2023-05-14T21:20:15.535Z,35.37
2023-05-14T21:22:42.309Z,8.03
2023-05-14T21:25:09.386Z,7.03
2023-05-14T21:27:36.203Z,6.83
2023-05-14T21:30:03.224Z,9.03
2023-05-14T21:32:29.968Z,5.97
2023-05-14T21:34:56.783Z,8.07
2023-05-14T21:37:23.597Z,8.20
2023-05-14T21:39:50.895Z,7.27
2023-05-14T21:42:18.881Z,7.17
2023-05-14T21:44:45.603Z,6.10
2023-05-14T21:47:12.321Z,6.60
2023-05-14T21:49:39.013Z,8.40
2023-05-14T21:52:05.885Z,6.60
2023-05-14T21:54:32.563Z,7.37
2023-05-14T21:56:59.275Z,6.40
2023-05-14T21:59:26.009Z,6.37
2023-05-14T22:02:06.103Z,6.97
2023-05-14T22:04:33.525Z,7.70
2023-05-14T22:07:00.494Z,7.87
2023-05-14T22:09:27.363Z,7.80
2023-05-14T22:11:54.095Z,7.47
2023-05-14T22:14:20.903Z,7.67
2023-05-14T22:16:47.635Z,8.20
2023-05-14T22:19:16.405Z,10.90
2023-05-14T22:21:43.387Z,7.90
2023-05-14T22:24:10.066Z,9.40
2023-05-14T22:26:36.810Z,7.20
2023-05-14T22:29:03.468Z,8.27
2023-05-14T22:31:30.327Z,8.53
2023-05-14T22:33:57.098Z,9.80
2023-05-14T22:36:23.796Z,9.53
2023-05-14T22:38:50.458Z,9.33
2023-05-14T22:41:19.803Z,10.03
2023-05-14T22:43:48.657Z,8.83
2023-05-14T22:46:16.039Z,8.13
2023-05-14T22:48:42.806Z,7.30
2023-05-14T22:51:09.530Z,9.07
2023-05-14T22:53:36.335Z,8.50
2023-05-14T22:56:03.253Z,7.70
2023-05-14T22:58:29.992Z,7.43
2023-05-14T23:00:57.033Z,7.97
2023-05-14T23:03:23.706Z,7.77
2023-05-14T23:05:50.397Z,6.97
2023-05-14T23:08:17.108Z,7.80
2023-05-14T23:10:43.765Z,7.93
2023-05-14T23:13:10.427Z,8.10
2023-05-14T23:15:38.768Z,7.83
2023-05-14T23:18:05.753Z,8.00
2023-05-14T23:20:32.485Z,7.40
2023-05-14T23:22:59.195Z,7.80
2023-05-14T23:25:26.108Z,7.97
2023-05-14T23:27:52.982Z,7.87
2023-05-14T23:30:19.795Z,6.20
2023-05-14T23:32:46.459Z,7.90
2023-05-14T23:35:13.325Z,6.53
2023-05-14T23:37:46.869Z,6.73
2023-05-14T23:40:13.687Z,5.77
2023-05-14T23:42:40.349Z,7.07
2023-05-14T23:45:08.349Z,6.57
2023-05-14T23:47:35.417Z,7.43
2023-05-14T23:50:02.894Z,6.30
2023-05-14T23:52:29.604Z,7.67
2023-05-14T23:54:56.292Z,7.00
2023-05-14T23:57:23.083Z,7.07
2023-05-14T23:59:49.789Z,8.03
